Time;durP1;ratioP1;P1;durP2;ratioP2;P2;SDS_P1;SDS_P2;PMS_P1;PMS_P2;Temp;Humidity;BMP_temperature;BMP_pressure;BME280_temperature;BME280_humidity;BME280_pressure;Samples;Min_cycle;Max_cycle;Signal;HPM_P1;HPM_P2
2021/10/15 00:00:03;;;;;;;7.13;6.43;;;;;;;9.25;83.52;99143.06;4971878;28;103144;-68
2021/10/15 00:02:38;;;;;;;8.63;7.82;;;;;;;9.18;83.76;99142.59;4971506;28;103453;-59
2021/10/15 00:05:08;;;;;;;7.97;7.20;;;;;;;9.11;83.83;99145.69;4970282;28;103215;-60
2021/10/15 00:07:36;;;;;;;8.52;7.50;;;;;;;9.20;83.80;99142.50;4974016;28;102881;-59
2021/10/15 00:10:04;;;;;;;9.50;8.50;;;;;;;9.21;83.86;99141.56;4979178;28;103218;-68
2021/10/15 00:12:32;;;;;;;9.88;8.88;;;;;;;8.96;84.12;99141.31;4973463;28;103596;-68
2021/10/15 00:15:00;;;;;;;8.98;8.07;;;;;;;8.91;84.72;99135.47;4970083;28;102981;-60
2021/10/15 00:17:29;;;;;;;11.32;9.68;;;;;;;8.61;84.69;99140.72;4970111;28;102620;-59
2021/10/15 00:19:57;;;;;;;11.13;9.30;;;;;;;8.40;87.09;99137.53;4972236;28;103666;-68
2021/10/15 00:22:26;;;;;;;10.88;9.65;;;;;;;8.35;87.40;99133.47;4955894;28;104020;-68
2021/10/15 00:24:53;;;;;;;11.77;10.00;;;;;;;8.06;89.52;99142.94;4969913;28;103891;-67
2021/10/15 00:27:21;;;;;;;10.90;8.93;;;;;;;8.39;88.07;99135.84;4953891;28;102846;-58
2021/10/15 00:29:49;;;;;;;11.73;8.10;;;;;;;8.65;86.98;99131.69;4970903;28;103231;-59
2021/10/15 00:32:17;;;;;;;9.48;8.43;;;;;;;8.63;86.00;99129.16;4972221;28;103653;-60
2021/10/15 00:34:47;;;;;;;7.80;7.03;;;;;;;8.88;85.72;99119.84;4955504;28;103934;-60
2021/10/15 00:37:17;;;;;;;7.03;6.43;;;;;;;9.01;84.67;99118.19;4952589;28;103086;-59
2021/10/15 00:39:45;;;;;;;7.25;6.55;;;;;;;9.03;83.60;99122.44;4971553;28;103211;-67
2021/10/15 00:42:13;;;;;;;7.05;6.45;;;;;;;9.06;82.60;99118.75;4970712;28;103246;-67
2021/10/15 00:44:41;;;;;;;7.00;6.40;;;;;;;9.04;83.03;99113.56;4974147;28;103190;-68
2021/10/15 00:47:09;;;;;;;7.15;6.55;;;;;;;9.07;82.66;99112.53;4968397;28;102744;-60
2021/10/15 00:49:37;;;;;;;7.45;6.75;;;;;;;9.09;82.74;99114.16;4973219;28;102753;-60
2021/10/15 00:52:08;;;;;;;7.80;7.10;;;;;;;8.88;83.31;99112.78;4972385;28;103938;-59
2021/10/15 00:54:37;;;;;;;8.95;8.05;;;;;;;8.58;84.47;99115.44;4971662;28;102973;-59
2021/10/15 00:57:10;;;;;;;9.98;9.02;;;;;;;7.93;87.28;99111.19;4971570;28;102672;-59
2021/10/15 00:59:39;;;;;;;8.18;7.38;;;;;;;8.20;88.32;99102.72;4956380;28;102738;-67
2021/10/15 01:02:08;;;;;;;8.45;7.57;;;;;;;8.50;86.04;99096.59;4968554;28;103359;-60
2021/10/15 01:04:36;;;;;;;7.72;7.10;;;;;;;8.55;85.48;99098.94;4975252;28;103313;-67
2021/10/15 01:07:04;;;;;;;7.88;7.18;;;;;;;8.44;85.33;99096.94;4978323;28;103179;-59
2021/10/15 01:09:35;;;;;;;6.78;6.15;;;;;;;8.59;85.31;99090.75;4974125;28;103227;-68
2021/10/15 01:12:05;;;;;;;8.20;7.40;;;;;;;8.62;85.40;99090.59;4970788;28;103613;-60
2021/10/15 01:14:33;;;;;;;9.70;8.70;;;;;;;8.29;86.69;99087.28;4975321;28;103210;-67
2021/10/15 01:17:02;;;;;;;10.63;9.57;;;;;;;7.89;89.34;99091.25;4980207;28;102577;-68
2021/10/15 01:19:30;;;;;;;6.72;6.15;;;;;;;8.35;88.29;99086.91;4978311;28;102852;-59
2021/10/15 01:22:02;;;;;;;8.90;7.97;;;;;;;8.42;85.83;99087.44;4978190;28;103969;-59
2021/10/15 01:24:31;;;;;;;8.27;7.47;;;;;;;8.67;85.35;99083.25;4978145;28;103163;-59
2021/10/15 01:27:07;;;;;;;8.48;7.68;;;;;;;8.74;85.42;99089.03;4974678;28;103776;-60
2021/10/15 01:29:35;;;;;;;7.80;7.10;;;;;;;8.67;84.62;99083.25;4976521;28;102640;-59
2021/10/15 01:32:04;;;;;;;10.20;9.10;;;;;;;8.22;85.89;99085.91;4978341;28;103305;-59
2021/10/15 01:34:32;;;;;;;11.50;10.30;;;;;;;7.85;88.09;99073.94;4959108;28;105255;-59
2021/10/15 01:37:02;;;;;;;10.52;9.57;;;;;;;7.71;87.66;99073.84;4978224;28;103311;-58
2021/10/15 01:39:30;;;;;;;10.32;9.25;;;;;;;7.96;88.58;99070.72;4978340;28;102703;-66
2021/10/15 01:41:58;;;;;;;11.40;9.15;;;;;;;8.11;87.58;99064.59;4975501;28;104009;-68
2021/10/15 01:44:26;;;;;;;8.45;7.55;;;;;;;8.32;86.80;99066.03;4976853;28;103223;-59
2021/10/15 01:46:54;;;;;;;9.77;8.60;;;;;;;8.33;85.15;99059.84;4976176;28;102773;-59
2021/10/15 01:49:22;;;;;;;10.00;9.00;;;;;;;8.03;87.53;99061.53;4957598;28;102657;-59
2021/10/15 01:51:50;;;;;;;8.18;7.38;;;;;;;8.40;86.41;99050.63;4972619;28;104125;-59
2021/10/15 01:54:20;;;;;;;8.93;8.05;;;;;;;8.42;85.93;99046.13;4951653;28;103513;-59
2021/10/15 01:56:49;;;;;;;7.72;7.03;;;;;;;8.55;85.54;99049.75;4968411;28;103048;-59
2021/10/15 01:59:16;;;;;;;6.90;6.30;;;;;;;8.65;84.61;99045.63;4968103;28;103963;-59
2021/10/15 02:01:45;;;;;;;7.82;7.13;;;;;;;8.50;83.89;99045.69;4963249;28;104191;-59
2021/10/15 02:04:13;;;;;;;9.90;8.90;;;;;;;8.19;85.21;99041.31;4967582;28;103255;-59
2021/10/15 02:06:41;;;;;;;10.38;9.38;;;;;;;8.05;85.91;99042.13;4969478;28;102680;-66
2021/10/15 02:09:09;;;;;;;9.98;8.93;;;;;;;8.07;85.78;99045.50;4971387;28;103001;-68
2021/10/15 02:11:38;;;;;;;9.98;8.23;;;;;;;8.35;85.26;99034.28;4968519;28;103254;-67
2021/10/15 02:14:06;;;;;;;6.67;6.07;;;;;;;8.46;84.68;99038.91;4969464;28;103243;-68
2021/10/15 02:16:34;;;;;;;8.75;7.95;;;;;;;8.41;84.95;99033.91;4968452;28;102958;-59
2021/10/15 02:19:08;;;;;;;8.93;8.05;;;;;;;8.34;85.77;99032.56;4967904;28;103373;-60
2021/10/15 02:21:36;;;;;;;8.38;7.57;;;;;;;8.46;85.01;99031.84;4968519;28;103834;-59
2021/10/15 02:24:05;;;;;;;7.97;7.18;;;;;;;8.60;84.35;99024.00;4969980;28;103234;-68
2021/10/15 02:26:33;;;;;;;8.40;7.60;;;;;;;8.62;83.66;99016.84;4969742;28;103008;-67
2021/10/15 02:29:03;;;;;;;9.80;8.90;;;;;;;8.41;84.00;99019.91;4971254;28;104027;-67
2021/10/15 02:31:31;;;;;;;8.80;7.97;;;;;;;8.36;84.92;99020.19;4952804;28;104477;-67
2021/10/15 02:34:00;;;;;;;7.50;6.80;;;;;;;8.56;84.10;99019.00;4963769;28;103304;-68
2021/10/15 02:36:28;;;;;;;7.13;6.45;;;;;;;8.67;82.90;99019.22;4953760;28;103141;-68
2021/10/15 02:38:55;;;;;;;9.80;8.43;;;;;;;8.31;83.79;99014.31;4962561;28;104074;-67
2021/10/15 02:41:24;;;;;;;9.97;8.70;;;;;;;8.39;83.90;99014.75;4961954;28;104361;-68
2021/10/15 02:43:53;;;;;;;7.40;6.70;;;;;;;8.60;83.32;99008.19;4971959;28;103494;-68
2021/10/15 02:46:23;;;;;;;7.47;6.78;;;;;;;8.67;82.77;99003.41;4973704;28;104456;-68
2021/10/15 02:48:51;;;;;;;7.60;6.90;;;;;;;8.55;82.66;99002.34;4970196;28;102851;-67
2021/10/15 02:51:19;;;;;;;8.10;7.30;;;;;;;8.56;82.57;99006.66;4968604;28;104810;-68
2021/10/15 02:53:47;;;;;;;9.00;8.10;;;;;;;8.36;82.89;98996.47;4968512;28;103260;-68
2021/10/15 02:56:15;;;;;;;8.55;7.70;;;;;;;8.35;83.89;98993.94;4974871;28;102736;-68
2021/10/15 02:58:43;;;;;;;7.70;7.00;;;;;;;8.43;83.46;98984.63;4973865;28;102745;-59
2021/10/15 03:01:11;;;;;;;8.13;7.43;;;;;;;8.49;83.19;98979.00;4970837;28;103282;-59
2021/10/15 03:03:41;;;;;;;8.23;7.50;;;;;;;8.29;84.48;98981.13;4970830;28;103362;-59
2021/10/15 03:06:09;;;;;;;7.93;7.13;;;;;;;8.37;84.08;98982.38;4970319;28;102736;-59
2021/10/15 03:08:38;;;;;;;8.32;7.53;;;;;;;8.17;84.50;98980.00;4975519;28;104061;-60
2021/10/15 03:11:06;;;;;;;7.28;6.57;;;;;;;8.32;83.62;98963.38;4973169;28;103199;-67
2021/10/15 03:13:34;;;;;;;8.80;8.00;;;;;;;8.26;84.12;98976.84;4978247;28;103233;-66
2021/10/15 03:16:02;;;;;;;8.20;7.40;;;;;;;8.30;83.89;98982.81;4981661;28;102671;-67
2021/10/15 03:18:30;;;;;;;8.35;7.45;;;;;;;8.33;83.75;98972.97;4978804;28;103884;-67
2021/10/15 03:21:00;;;;;;;9.88;8.18;;;;;;;8.08;84.31;98975.31;4981287;28;103678;-67
2021/10/15 03:23:29;;;;;;;8.40;7.60;;;;;;;8.30;83.72;98973.16;4980510;28;103225;-67
2021/10/15 03:25:57;;;;;;;11.87;9.70;;;;;;;7.74;85.32;98968.50;4980172;28;102866;-59
2021/10/15 03:28:25;;;;;;;10.95;8.80;;;;;;;7.87;85.68;98974.75;4984376;28;102935;-58
2021/10/15 03:30:53;;;;;;;9.00;7.88;;;;;;;7.90;85.83;98968.44;4978860;28;103235;-67
2021/10/15 03:33:21;;;;;;;8.65;7.75;;;;;;;8.22;84.57;98975.34;4981187;28;103245;-58
2021/10/15 03:35:49;;;;;;;8.60;7.70;;;;;;;8.32;82.97;98971.25;4978438;28;102928;-59
2021/10/15 03:38:19;;;;;;;7.95;7.15;;;;;;;8.39;82.62;98966.50;4979641;28;103072;-58
2021/10/15 03:40:47;;;;;;;10.32;9.23;;;;;;;7.77;84.99;98967.47;4981717;28;103953;-66
2021/10/15 03:43:15;;;;;;;11.00;9.35;;;;;;;7.98;83.94;98966.22;4978909;28;103199;-60
2021/10/15 03:45:43;;;;;;;8.63;7.72;;;;;;;8.07;84.10;98971.81;4979029;28;102585;-60
2021/10/15 03:48:11;;;;;;;8.10;7.38;;;;;;;8.17;83.59;98972.97;4973833;28;103172;-59
2021/10/15 03:50:40;;;;;;;8.45;7.63;;;;;;;8.14;83.03;98970.50;4979078;28;104092;-59
2021/10/15 03:53:08;;;;;;;9.10;8.05;;;;;;;8.13;83.48;98970.63;4981518;28;103209;-67
2021/10/15 03:55:38;;;;;;;8.15;7.45;;;;;;;8.14;83.32;98972.28;4978794;28;102587;-66
2021/10/15 03:58:06;;;;;;;9.98;8.48;;;;;;;8.03;82.57;98962.41;4975962;28;102830;-65
2021/10/15 04:00:34;;;;;;;7.93;7.13;;;;;;;7.98;83.54;98960.97;4976950;28;103245;-69
2021/10/15 04:03:02;;;;;;;8.83;7.83;;;;;;;7.83;83.33;98962.69;4978317;28;103349;-71
2021/10/15 04:05:30;;;;;;;8.77;7.88;;;;;;;7.89;83.75;98964.13;4973895;28;102670;-71
2021/10/15 04:07:58;;;;;;;9.43;8.43;;;;;;;7.76;83.37;98963.97;4982179;28;103771;-70
2021/10/15 04:10:27;;;;;;;9.68;8.60;;;;;;;7.61;84.74;98961.38;4980085;28;103984;-71
2021/10/15 04:12:56;;;;;;;10.80;8.85;;;;;;;7.77;83.70;98956.94;4977722;28;103275;-60
2021/10/15 04:15:24;;;;;;;9.57;7.95;;;;;;;7.91;83.07;98957.00;4978864;28;102603;-60
2021/10/15 04:17:53;;;;;;;8.18;7.47;;;;;;;7.99;83.39;98953.00;4978524;28;103638;-70
2021/10/15 04:20:21;;;;;;;12.53;9.23;;;;;;;7.50;82.98;98948.81;4976457;28;104064;-71
2021/10/15 04:22:49;;;;;;;9.88;8.75;;;;;;;7.37;86.51;98946.03;4961658;28;103470;-60
2021/10/15 04:25:17;;;;;;;10.45;9.40;;;;;;;7.30;85.11;98949.91;4980523;28;102599;-71
2021/10/15 04:27:44;;;;;;;9.90;8.90;;;;;;;7.33;85.65;98947.13;4977357;28;102597;-60
2021/10/15 04:30:14;;;;;;;9.07;8.25;;;;;;;7.64;85.37;98938.38;4977306;28;103236;-60
2021/10/15 04:32:42;;;;;;;8.38;7.35;;;;;;;7.79;84.71;98929.63;4978595;28;103274;-70
2021/10/15 04:35:10;;;;;;;9.65;8.10;;;;;;;7.70;84.60;98930.13;4978282;28;102991;-59
2021/10/15 04:37:39;;;;;;;10.07;7.97;;;;;;;7.93;83.75;98937.56;4976553;28;103209;-67
2021/10/15 04:40:08;;;;;;;9.35;8.30;;;;;;;7.91;82.75;98930.69;4977686;28;104184;-67
2021/10/15 04:42:38;;;;;;;9.20;7.85;;;;;;;7.94;82.98;98930.53;4980017;28;103481;-66
2021/10/15 04:45:07;;;;;;;8.30;7.47;;;;;;;7.86;83.25;98930.94;4979673;28;102509;-59
2021/10/15 04:47:36;;;;;;;8.77;7.93;;;;;;;7.89;82.41;98928.13;4954610;28;102982;-66
2021/10/15 04:50:06;;;;;;;8.23;7.45;;;;;;;8.02;82.42;98926.50;4977454;28;103912;-66
2021/10/15 04:52:35;;;;;;;10.90;9.50;;;;;;;7.69;83.26;98927.59;4978551;28;103682;-66
2021/10/15 04:55:03;;;;;;;7.45;6.75;;;;;;;7.92;82.58;98927.09;4977675;28;102579;-59
2021/10/15 04:57:31;;;;;;;8.25;7.45;;;;;;;8.05;81.81;98925.47;4976547;28;102965;-66
2021/10/15 04:59:59;;;;;;;9.65;8.02;;;;;;;8.00;81.91;98917.84;4971998;28;104106;-66
2021/10/15 05:02:27;;;;;;;9.97;8.50;;;;;;;7.85;82.84;98910.84;4974567;28;103308;-59
2021/10/15 05:04:57;;;;;;;9.85;8.40;;;;;;;7.91;82.26;98917.53;4976539;28;102968;-65
2021/10/15 05:07:26;;;;;;;11.00;9.85;;;;;;;7.30;83.43;98913.13;4965441;28;102616;-66
2021/10/15 05:09:54;;;;;;;8.27;7.47;;;;;;;7.61;84.33;98908.78;4962826;28;103338;-59
2021/10/15 05:12:22;;;;;;;12.43;9.80;;;;;;;7.29;84.29;98913.22;4950294;28;103257;-67
2021/10/15 05:14:50;;;;;;;11.30;9.40;;;;;;;7.15;85.72;98911.38;4964167;28;102896;-59
2021/10/15 05:17:18;;;;;;;9.43;8.50;;;;;;;7.25;86.65;98909.91;4969524;28;104002;-58
2021/10/15 05:19:46;;;;;;;8.98;8.07;;;;;;;7.63;84.84;98913.03;4974545;28;103355;-59
2021/10/15 05:22:16;;;;;;;7.87;7.17;;;;;;;7.83;83.62;98909.25;4971579;28;103245;-59
2021/10/15 05:24:44;;;;;;;8.30;7.20;;;;;;;7.90;82.69;98910.56;4969132;28;102688;-59
2021/10/15 05:27:12;;;;;;;11.00;8.63;;;;;;;7.80;82.19;98914.69;4972069;28;102888;-60
2021/10/15 05:29:41;;;;;;;10.75;9.65;;;;;;;7.44;83.34;98915.81;4969127;28;103508;-59
2021/10/15 05:32:09;;;;;;;9.68;8.73;;;;;;;7.49;83.93;98911.16;4971981;28;103232;-59
2021/10/15 05:34:37;;;;;;;11.68;10.48;;;;;;;7.04;84.78;98918.13;4977444;28;102642;-60
2021/10/15 05:37:05;;;;;;;12.63;10.35;;;;;;;7.16;85.55;98918.28;4964369;28;102692;-60
2021/10/15 05:39:35;;;;;;;11.80;10.60;;;;;;;6.95;86.83;98914.22;4974209;28;104117;-59
2021/10/15 05:42:03;;;;;;;10.27;9.18;;;;;;;7.23;86.21;98914.41;4951564;28;103240;-59
2021/10/15 05:44:31;;;;;;;11.23;10.03;;;;;;;7.40;84.65;98916.94;4976552;28;103863;-66
2021/10/15 05:47:03;;;;;;;7.93;7.22;;;;;;;7.65;83.75;98911.16;4972572;28;102868;-66
2021/10/15 05:49:32;;;;;;;9.05;8.23;;;;;;;7.53;84.24;98912.69;4969812;28;103217;-59
2021/10/15 05:52:05;;;;;;;10.47;9.27;;;;;;;7.47;84.02;98913.03;4969976;28;103234;-66
2021/10/15 05:54:43;;;;;;;11.80;10.57;;;;;;;7.14;83.88;98914.91;4970118;28;102692;-66
2021/10/15 05:57:30;;;;;;;10.40;9.30;;;;;;;7.20;86.49;98916.34;4964715;28;103037;-66
2021/10/15 05:59:57;;;;;;;9.02;8.13;;;;;;;7.62;84.95;98915.72;4978393;28;103304;-67
2021/10/15 06:02:31;;;;;;;12.05;10.60;;;;;;;7.33;83.70;98925.25;4973386;28;103036;-66
2021/10/15 06:16:22;;;;;;;8.63;7.82;;;;;;;8.22;82.52;98911.34;5077684;27;103216;-67
2021/10/15 06:18:57;;;;;;;8.65;7.85;;;;;;;8.27;81.62;98910.16;5074993;27;102576;-66
2021/10/15 06:21:25;;;;;;;9.80;8.77;;;;;;;7.85;83.59;98915.25;5076700;27;102869;-66
2021/10/15 06:23:55;;;;;;;8.35;7.55;;;;;;;8.10;82.98;98910.25;5074378;27;104110;-67
2021/10/15 06:26:23;;;;;;;8.13;7.33;;;;;;;8.31;82.15;98913.47;5071095;27;103204;-60
2021/10/15 06:28:51;;;;;;;9.35;8.23;;;;;;;8.18;81.95;98916.78;5071843;27;102836;-61
2021/10/15 06:31:19;;;;;;;7.90;7.10;;;;;;;8.32;82.00;98918.63;5071264;27;102583;-60
2021/10/15 06:33:47;;;;;;;7.10;6.43;;;;;;;8.45;81.64;98921.38;5073339;27;103249;-66
2021/10/15 06:36:15;;;;;;;6.95;6.25;;;;;;;8.53;80.67;98917.31;5049591;27;103225;-59
2021/10/15 06:38:43;;;;;;;7.30;6.60;;;;;;;8.58;80.92;98914.41;5052035;27;102811;-65
2021/10/15 06:41:13;;;;;;;7.00;6.38;;;;;;;8.64;80.02;98930.69;5067265;27;102984;-66
2021/10/15 06:43:41;;;;;;;7.03;6.43;;;;;;;8.78;80.00;98934.28;5072952;27;103394;-66
2021/10/15 06:46:12;;;;;;;8.75;7.88;;;;;;;8.41;80.15;98928.59;5056436;27;103070;-65
2021/10/15 06:48:41;;;;;;;7.50;6.90;;;;;;;8.32;82.48;98926.50;5069452;27;102984;-66
2021/10/15 06:51:09;;;;;;;6.93;6.28;;;;;;;8.48;82.48;98929.91;5076249;27;102698;-66
2021/10/15 06:53:37;;;;;;;8.45;7.65;;;;;;;8.23;82.89;98924.38;5073365;27;103698;-60
2021/10/15 06:56:05;;;;;;;6.80;6.20;;;;;;;8.65;81.67;98927.09;5068506;27;103210;-66
2021/10/15 06:58:35;;;;;;;7.22;6.50;;;;;;;8.81;81.43;98931.44;5077397;27;102501;-66
2021/10/15 07:01:06;;;;;;;7.55;6.80;;;;;;;9.24;79.58;98930.47;5074694;27;102651;-66
2021/10/15 07:03:34;;;;;;;9.00;7.47;;;;;;;9.24;80.42;98931.31;5073446;27;103202;-59
2021/10/15 07:06:02;;;;;;;8.02;7.22;;;;;;;9.80;78.52;98935.56;5073229;27;103192;-60
2021/10/15 07:08:30;;;;;;;8.60;7.55;;;;;;;9.64;78.31;98929.59;5076961;27;102699;-59
2021/10/15 07:10:58;;;;;;;8.57;7.77;;;;;;;9.26;79.27;98928.59;5072852;27;102632;-60
2021/10/15 07:13:26;;;;;;;9.30;8.40;;;;;;;9.15;80.21;98934.50;5051256;27;103231;-60
2021/10/15 07:15:55;;;;;;;8.95;8.05;;;;;;;9.25;79.62;98932.16;5074784;27;103198;-66
2021/10/15 07:18:23;;;;;;;7.95;6.72;;;;;;;9.99;78.45;98931.75;5061131;27;103844;-66
2021/10/15 07:20:51;;;;;;;9.05;8.10;;;;;;;9.91;77.32;98938.34;5053828;27;102673;-67
2021/10/15 07:23:19;;;;;;;7.80;7.00;;;;;;;10.61;76.49;98933.63;5055172;27;103236;-67
2021/10/15 07:25:47;;;;;;;7.67;6.87;;;;;;;10.81;75.37;98927.81;5036935;27;103176;-67
2021/10/15 07:28:17;;;;;;;10.50;8.17;;;;;;;10.82;74.13;98926.03;5057713;27;102910;-66
2021/10/15 07:30:46;;;;;;;10.87;7.93;;;;;;;11.07;73.36;98932.16;5053524;27;103932;-67
2021/10/15 07:33:16;;;;;;;11.27;8.30;;;;;;;11.39;72.04;98926.38;5053000;27;104186;-67
2021/10/15 07:35:45;;;;;;;8.93;7.68;;;;;;;11.62;70.90;98928.19;5056734;27;103793;-66
2021/10/15 07:38:13;;;;;;;8.73;6.97;;;;;;;12.06;69.88;98928.44;5055558;27;102628;-67
2021/10/15 07:40:42;;;;;;;8.40;7.13;;;;;;;12.09;68.84;98938.81;5058655;27;104115;-68
2021/10/15 07:43:10;;;;;;;11.43;6.90;;;;;;;11.81;70.78;98935.66;5058776;27;103237;-60
2021/10/15 07:45:38;;;;;;;7.17;5.87;;;;;;;12.27;70.21;98927.78;5059963;27;103250;-60
2021/10/15 08:11:57;;;;;;;8.85;7.13;;;;;;;13.23;65.05;98938.78;5073374;27;102631;-62
2021/10/15 08:14:26;;;;;;;7.60;6.82;;;;;;;13.90;64.36;98935.97;5065877;27;102775;-62
2021/10/15 08:16:54;;;;;;;7.75;6.70;;;;;;;14.54;61.97;98933.31;5068319;27;103000;-62
2021/10/15 08:19:37;;;;;;;8.70;6.50;;;;;;;14.99;62.21;98932.88;5069189;27;103311;-62
2021/10/15 08:22:05;;;;;;;7.35;6.65;;;;;;;15.57;57.88;98930.47;5064878;27;102625;-62
2021/10/15 08:24:34;;;;;;;7.40;6.68;;;;;;;14.94;60.38;98943.06;5069834;27;102853;-62
2021/10/15 08:27:04;;;;;;;8.35;6.60;;;;;;;14.95;60.62;98935.94;5076028;27;103941;-62
2021/10/15 08:29:37;;;;;;;8.18;6.95;;;;;;;14.92;61.07;98944.19;5069556;27;102996;-62
2021/10/15 08:32:06;;;;;;;8.02;7.10;;;;;;;15.39;58.26;98940.88;5069423;27;102680;-62
2021/10/15 08:34:34;;;;;;;7.78;6.97;;;;;;;15.06;59.74;98942.00;5076415;27;102743;-62
2021/10/15 08:37:02;;;;;;;8.27;7.22;;;;;;;15.36;59.39;98935.81;5073924;27;103221;-62
2021/10/15 08:39:30;;;;;;;7.35;6.68;;;;;;;15.61;58.98;98938.03;5075399;27;103219;-62
2021/10/15 08:42:00;;;;;;;7.15;6.45;;;;;;;16.22;55.71;98935.16;5078186;27;102574;-62
2021/10/15 08:44:35;;;;;;;9.02;6.85;;;;;;;16.16;57.29;98939.25;5073093;27;102742;-62
2021/10/15 08:47:04;;;;;;;7.72;7.00;;;;;;;14.88;60.95;98937.41;5075289;27;104066;-62
2021/10/15 08:49:52;;;;;;;8.77;7.30;;;;;;;14.56;60.95;98942.84;5071691;27;103327;-62
2021/10/15 08:52:20;;;;;;;8.50;7.60;;;;;;;14.87;60.42;98938.41;5069700;27;103014;-62
2021/10/15 08:54:48;;;;;;;9.03;8.13;;;;;;;14.84;60.85;98941.34;5070147;27;103929;-62
2021/10/15 08:57:16;;;;;;;9.57;7.30;;;;;;;14.77;61.13;98934.84;5072753;27;103821;-62
2021/10/15 08:59:48;;;;;;;7.70;6.90;;;;;;;15.59;58.43;98934.66;5070439;27;103219;-62
2021/10/15 09:02:18;;;;;;;10.35;7.80;;;;;;;15.55;58.05;98927.91;5071005;27;102742;-63
2021/10/15 09:04:48;;;;;;;7.90;7.10;;;;;;;16.37;55.41;98931.06;5070416;27;104122;-62
2021/10/15 09:07:19;;;;;;;7.93;6.53;;;;;;;16.61;56.60;98926.19;5045421;27;104508;-63
2021/10/15 09:09:50;;;;;;;8.60;7.33;;;;;;;16.33;56.49;98927.03;5058379;27;103615;-62
2021/10/15 09:12:20;;;;;;;7.25;6.40;;;;;;;16.80;55.88;98926.13;5058657;27;102548;-63
2021/10/15 09:14:49;;;;;;;8.77;7.20;;;;;;;16.67;55.61;98922.09;5053401;27;104157;-63
2021/10/15 09:17:25;;;;;;;11.18;7.80;;;;;;;15.76;57.47;98921.66;5053988;27;103304;-63
2021/10/15 09:19:55;;;;;;;9.43;7.73;;;;;;;16.64;56.41;98928.56;5059054;27;103279;-63
2021/10/15 09:22:25;;;;;;;7.65;6.95;;;;;;;16.94;54.12;98921.31;5060565;27;102941;-62
2021/10/15 09:24:55;;;;;;;8.63;7.10;;;;;;;16.95;55.85;98923.00;5057203;27;103965;-63
2021/10/15 09:27:29;;;;;;;7.03;6.30;;;;;;;17.22;55.64;98915.03;5057798;27;103527;-63
2021/10/15 09:30:02;;;;;;;8.87;7.67;;;;;;;15.95;56.51;98919.00;5056525;27;103251;-62
2021/10/15 09:32:34;;;;;;;8.83;7.93;;;;;;;15.38;58.51;98915.22;5062972;27;102919;-64
2021/10/15 09:35:03;;;;;;;8.87;6.97;;;;;;;16.04;56.76;98920.84;5062786;27;102878;-64
2021/10/15 09:37:33;;;;;;;8.57;7.47;;;;;;;16.03;58.92;98924.47;5055180;27;103242;-64
2021/10/15 09:40:06;;;;;;;9.98;7.70;;;;;;;15.90;57.72;98924.75;5058680;27;103218;-62
2021/10/15 10:06:18;;;;;;;7.30;6.60;;;;;;;16.72;56.39;98910.00;4940149;28;103375;-61
2021/10/15 10:08:46;;;;;;;7.57;6.45;;;;;;;16.96;56.33;98905.97;4924979;28;103319;-61
2021/10/15 10:11:15;;;;;;;7.80;7.00;;;;;;;16.44;57.45;98902.88;4941582;28;102826;-61
2021/10/15 10:13:44;;;;;;;9.82;7.05;;;;;;;16.84;56.67;98907.16;4944810;28;104004;-61
2021/10/15 10:16:12;;;;;;;7.47;6.77;;;;;;;16.06;58.01;98916.19;4962036;28;103313;-61
2021/10/15 10:18:43;;;;;;;8.13;7.20;;;;;;;16.90;56.16;98911.94;4961520;28;103046;-61
2021/10/15 10:21:17;;;;;;;9.90;6.37;;;;;;;16.30;56.78;98905.97;4961626;28;103561;-61
2021/10/15 10:23:52;;;;;;;7.70;6.05;;;;;;;16.96;55.80;98895.31;4961649;28;102671;-61
2021/10/15 10:26:21;;;;;;;6.57;5.88;;;;;;;17.13;55.57;98891.88;4961779;28;103113;-61
2021/10/15 10:29:00;;;;;;;8.93;6.33;;;;;;;17.18;56.17;98890.44;4963410;28;103617;-61
2021/10/15 10:31:28;;;;;;;7.43;6.72;;;;;;;15.86;57.19;98901.22;4963585;28;102586;-61
2021/10/15 10:33:59;;;;;;;6.77;6.07;;;;;;;16.57;57.80;98894.59;4961920;28;102721;-60
2021/10/15 10:36:28;;;;;;;6.53;6.03;;;;;;;16.57;56.98;98887.44;4961422;28;104008;-61
2021/10/15 10:39:29;;;;;;;6.57;5.97;;;;;;;17.38;55.57;98891.19;4963746;28;103392;-61
2021/10/15 10:42:05;;;;;;;7.23;6.30;;;;;;;17.98;54.47;98888.84;4963149;28;102911;-61
2021/10/15 10:44:35;;;;;;;9.13;6.20;;;;;;;17.85;53.46;98882.03;4964307;28;102669;-61
2021/10/15 10:47:15;;;;;;;6.30;5.70;;;;;;;17.86;53.72;98883.75;4961568;28;103775;-61
2021/10/15 10:50:12;;;;;;;6.18;5.57;;;;;;;17.66;53.19;98895.53;4963169;28;103204;-61
2021/10/15 10:53:08;;;;;;;7.50;6.07;;;;;;;17.34;56.54;98900.50;4946388;28;102746;-61
2021/10/15 10:55:46;;;;;;;6.65;5.70;;;;;;;18.03;54.11;98897.25;4947871;28;102937;-61
2021/10/15 10:58:32;;;;;;;7.43;5.10;;;;;;;17.89;54.21;98888.78;4964455;28;103382;-65
2021/10/15 11:01:24;;;;;;;7.50;4.32;;;;;;;18.08;53.35;98894.97;4961776;28;103286;-65
2021/10/15 11:03:54;;;;;;;4.80;3.67;;;;;;;17.77;53.69;98898.00;4963402;28;102783;-65
2021/10/15 11:06:22;;;;;;;4.55;3.85;;;;;;;17.76;53.73;98890.16;4984841;28;103308;-65
2021/10/15 11:08:51;;;;;;;4.63;3.38;;;;;;;17.66;52.64;98890.22;4983001;28;103434;-65
2021/10/15 11:11:43;;;;;;;4.57;3.75;;;;;;;15.84;56.12;98895.16;4982719;28;103339;-65
2021/10/15 11:14:39;;;;;;;4.35;3.95;;;;;;;16.16;56.77;98891.25;4984294;28;102829;-65
2021/10/15 11:17:12;;;;;;;4.30;3.90;;;;;;;15.91;58.42;98888.31;4966897;28;103031;-65
2021/10/15 11:19:41;;;;;;;5.60;3.88;;;;;;;16.79;57.14;98879.09;4982743;28;103316;-64
2021/10/15 11:22:09;;;;;;;5.25;3.40;;;;;;;17.57;55.66;98880.41;4983960;28;103449;-65
2021/10/15 11:24:39;;;;;;;7.78;4.28;;;;;;;16.29;56.70;98882.97;4984832;28;102609;-64
2021/10/15 11:27:17;;;;;;;5.75;4.07;;;;;;;16.07;57.83;98878.78;4965463;28;102979;-65
2021/10/15 11:29:53;;;;;;;4.28;3.78;;;;;;;15.56;59.20;98876.34;4981333;28;103241;-65
2021/10/15 11:32:33;;;;;;;4.47;3.80;;;;;;;16.43;57.55;98874.50;4979888;28;103270;-64
2021/10/15 11:35:15;;;;;;;4.45;3.97;;;;;;;16.17;58.66;98870.75;4978463;28;103179;-65
2021/10/15 11:37:48;;;;;;;5.85;4.10;;;;;;;16.18;57.47;98867.13;4964747;28;102687;-65
2021/10/15 11:40:22;;;;;;;5.85;4.30;;;;;;;16.51;57.45;98863.97;4973451;28;103474;-65
2021/10/15 11:42:53;;;;;;;4.73;3.93;;;;;;;17.33;56.16;98866.75;4974086;28;103392;-66
2021/10/15 11:45:24;;;;;;;3.90;3.60;;;;;;;16.33;57.67;98871.03;4976352;28;102755;-66
2021/10/15 11:47:58;;;;;;;4.65;4.22;;;;;;;16.36;57.87;98869.91;4976345;28;102738;-65
2021/10/15 11:50:45;;;;;;;5.15;4.13;;;;;;;16.63;57.48;98865.53;4974730;28;103455;-64
2021/10/15 11:53:14;;;;;;;5.05;3.90;;;;;;;17.42;57.98;98849.84;4964005;28;103209;-65
2021/10/15 11:55:43;;;;;;;3.70;3.40;;;;;;;18.20;56.47;98843.78;4954770;28;102721;-65
2021/10/15 11:58:36;;;;;;;4.55;4.10;;;;;;;17.70;55.11;98848.84;4957428;28;102895;-65
2021/10/15 12:01:10;;;;;;;5.45;4.00;;;;;;;17.24;55.63;98844.47;4954502;28;104097;-65
2021/10/15 12:03:40;;;;;;;4.82;3.90;;;;;;;18.15;53.00;98839.88;4953326;28;103223;-65
2021/10/15 12:06:14;;;;;;;5.43;4.13;;;;;;;17.62;53.87;98842.59;4974638;28;104317;-65
2021/10/15 12:08:45;;;;;;;4.45;3.90;;;;;;;17.63;54.18;98842.41;4977904;28;102960;-65
2021/10/15 12:11:19;;;;;;;5.47;3.90;;;;;;;17.20;55.27;98847.59;4975909;28;104470;-65
2021/10/15 12:13:49;;;;;;;4.40;4.00;;;;;;;17.96;53.91;98843.59;4957595;28;103241;-65
2021/10/15 12:16:23;;;;;;;4.50;4.10;;;;;;;17.62;54.68;98846.09;4977754;28;102711;-65
2021/10/15 12:19:04;;;;;;;5.82;3.83;;;;;;;17.85;54.94;98846.50;4981584;28;102604;-66
2021/10/15 12:21:41;;;;;;;4.37;3.97;;;;;;;17.39;55.60;98845.66;4963361;28;103619;-65
2021/10/15 12:24:14;;;;;;;4.88;3.70;;;;;;;17.10;55.35;98849.47;4962797;28;103367;-66
2021/10/15 12:26:42;;;;;;;4.15;3.72;;;;;;;17.53;55.45;98846.97;4976196;28;102633;-65
2021/10/15 12:29:29;;;;;;;4.50;4.10;;;;;;;17.71;55.43;98842.50;4959076;28;104483;-65
2021/10/15 12:32:27;;;;;;;4.20;3.80;;;;;;;17.17;56.15;98837.22;4957346;28;103060;-65
2021/10/15 12:35:02;;;;;;;3.60;3.30;;;;;;;18.06;53.12;98832.78;4934663;28;103473;-65
2021/10/15 12:37:45;;;;;;;4.75;3.72;;;;;;;17.42;54.53;98836.50;4976261;28;102638;-65
2021/10/15 12:40:22;;;;;;;4.27;3.77;;;;;;;17.11;54.71;98835.13;4970400;28;103468;-64
2021/10/15 12:43:02;;;;;;;4.10;3.70;;;;;;;16.19;56.59;98837.66;4975082;28;103414;-65